sensor_id;sensor_type;location;lat;lon;timestamp;temperature;humidity
20066;DHT22;10193;48.884;9.182;2023-07-29T00:00:13;20.50;92.30
20066;DHT22;10193;48.884;9.182;2023-07-29T00:02:40;20.40;92.40
20066;DHT22;10193;48.884;9.182;2023-07-29T00:05:07;20.40;92.50
20066;DHT22;10193;48.884;9.182;2023-07-29T00:07:34;20.40;92.70
20066;DHT22;10193;48.884;9.182;2023-07-29T00:10:02;20.40;92.80
20066;DHT22;10193;48.884;9.182;2023-07-29T00:12:29;20.40;93.00
20066;DHT22;10193;48.884;9.182;2023-07-29T00:14:55;20.40;93.10
20066;DHT22;10193;48.884;9.182;2023-07-29T00:17:22;20.40;93.20
20066;DHT22;10193;48.884;9.182;2023-07-29T00:19:48;20.40;93.30
20066;DHT22;10193;48.884;9.182;2023-07-29T00:22:15;20.40;93.30
20066;DHT22;10193;48.884;9.182;2023-07-29T00:24:42;20.40;93.30
20066;DHT22;10193;48.884;9.182;2023-07-29T00:27:10;20.40;93.40
20066;DHT22;10193;48.884;9.182;2023-07-29T00:29:37;20.40;93.40
20066;DHT22;10193;48.884;9.182;2023-07-29T00:32:04;20.40;93.40
20066;DHT22;10193;48.884;9.182;2023-07-29T00:34:31;20.40;93.50
20066;DHT22;10193;48.884;9.182;2023-07-29T00:36:57;20.50;93.60
20066;DHT22;10193;48.884;9.182;2023-07-29T00:39:24;20.40;93.60
20066;DHT22;10193;48.884;9.182;2023-07-29T00:41:50;20.40;93.70
20066;DHT22;10193;48.884;9.182;2023-07-29T00:44:19;20.40;93.80
20066;DHT22;10193;48.884;9.182;2023-07-29T00:46:46;20.40;93.80
20066;DHT22;10193;48.884;9.182;2023-07-29T00:49:13;20.50;93.90
20066;DHT22;10193;48.884;9.182;2023-07-29T00:51:40;20.50;93.90
20066;DHT22;10193;48.884;9.182;2023-07-29T00:54:06;20.50;93.90
20066;DHT22;10193;48.884;9.182;2023-07-29T00:56:33;20.60;93.90
20066;DHT22;10193;48.884;9.182;2023-07-29T00:59:01;20.60;93.90
20066;DHT22;10193;48.884;9.182;2023-07-29T01:01:29;20.50;93.80
20066;DHT22;10193;48.884;9.182;2023-07-29T01:03:56;20.50;93.80
20066;DHT22;10193;48.884;9.182;2023-07-29T01:09:13;20.50;93.80
20066;DHT22;10193;48.884;9.182;2023-07-29T01:11:48;20.50;93.80
20066;DHT22;10193;48.884;9.182;2023-07-29T01:14:24;20.50;93.70
20066;DHT22;10193;48.884;9.182;2023-07-29T01:16:58;20.50;93.60
20066;DHT22;10193;48.884;9.182;2023-07-29T01:19:50;20.50;93.60
20066;DHT22;10193;48.884;9.182;2023-07-29T01:22:23;20.50;93.50
20066;DHT22;10193;48.884;9.182;2023-07-29T01:24:51;20.50;93.70
20066;DHT22;10193;48.884;9.182;2023-07-29T01:27:18;20.60;93.70
20066;DHT22;10193;48.884;9.182;2023-07-29T01:29:45;20.50;93.80
20066;DHT22;10193;48.884;9.182;2023-07-29T01:32:17;20.50;93.80
20066;DHT22;10193;48.884;9.182;2023-07-29T01:34:48;20.50;93.80
20066;DHT22;10193;48.884;9.182;2023-07-29T01:37:19;20.50;93.80
20066;DHT22;10193;48.884;9.182;2023-07-29T01:39:51;20.50;93.80
20066;DHT22;10193;48.884;9.182;2023-07-29T01:42:21;20.50;93.70
20066;DHT22;10193;48.884;9.182;2023-07-29T01:44:48;20.50;93.60
20066;DHT22;10193;48.884;9.182;2023-07-29T01:47:15;20.50;93.60
20066;DHT22;10193;48.884;9.182;2023-07-29T01:49:42;20.50;93.60
20066;DHT22;10193;48.884;9.182;2023-07-29T01:52:08;20.50;94.10
20066;DHT22;10193;48.884;9.182;2023-07-29T01:54:35;20.50;93.80
20066;DHT22;10193;48.884;9.182;2023-07-29T01:57:03;20.50;93.90
20066;DHT22;10193;48.884;9.182;2023-07-29T01:59:30;20.50;94.00
20066;DHT22;10193;48.884;9.182;2023-07-29T02:01:57;20.50;94.00
20066;DHT22;10193;48.884;9.182;2023-07-29T02:04:23;20.50;94.00
20066;DHT22;10193;48.884;9.182;2023-07-29T02:06:50;20.50;94.00
20066;DHT22;10193;48.884;9.182;2023-07-29T02:09:17;20.50;93.90
20066;DHT22;10193;48.884;9.182;2023-07-29T02:11:43;20.50;93.80
20066;DHT22;10193;48.884;9.182;2023-07-29T02:14:11;20.50;93.80
20066;DHT22;10193;48.884;9.182;2023-07-29T02:16:38;20.50;93.80
20066;DHT22;10193;48.884;9.182;2023-07-29T02:19:04;20.50;93.90
20066;DHT22;10193;48.884;9.182;2023-07-29T02:21:31;20.50;93.90
20066;DHT22;10193;48.884;9.182;2023-07-29T02:23:58;20.50;93.90
20066;DHT22;10193;48.884;9.182;2023-07-29T02:26:24;20.50;93.90
20066;DHT22;10193;48.884;9.182;2023-07-29T02:28:51;20.50;93.90
20066;DHT22;10193;48.884;9.182;2023-07-29T02:31:20;20.50;93.80
20066;DHT22;10193;48.884;9.182;2023-07-29T02:33:47;20.50;93.70
20066;DHT22;10193;48.884;9.182;2023-07-29T02:36:15;20.50;93.50
20066;DHT22;10193;48.884;9.182;2023-07-29T02:38:42;20.40;93.50
20066;DHT22;10193;48.884;9.182;2023-07-29T02:41:08;20.40;93.60
20066;DHT22;10193;48.884;9.182;2023-07-29T02:43:37;20.40;93.70
20066;DHT22;10193;48.884;9.182;2023-07-29T02:46:04;20.40;93.70
20066;DHT22;10193;48.884;9.182;2023-07-29T02:48:32;20.40;93.70
20066;DHT22;10193;48.884;9.182;2023-07-29T02:50:59;20.40;93.70
20066;DHT22;10193;48.884;9.182;2023-07-29T02:53:26;20.40;93.70
20066;DHT22;10193;48.884;9.182;2023-07-29T02:55:53;20.40;93.70
20066;DHT22;10193;48.884;9.182;2023-07-29T02:58:19;20.40;93.60
20066;DHT22;10193;48.884;9.182;2023-07-29T03:00:46;20.40;93.50
20066;DHT22;10193;48.884;9.182;2023-07-29T03:03:14;20.40;93.50
20066;DHT22;10193;48.884;9.182;2023-07-29T03:05:42;20.40;93.50
20066;DHT22;10193;48.884;9.182;2023-07-29T03:08:08;20.30;93.30
20066;DHT22;10193;48.884;9.182;2023-07-29T03:10:35;20.30;93.40
20066;DHT22;10193;48.884;9.182;2023-07-29T03:13:02;20.30;93.40
20066;DHT22;10193;48.884;9.182;2023-07-29T03:15:29;20.30;93.40
20066;DHT22;10193;48.884;9.182;2023-07-29T03:17:56;20.30;93.30
20066;DHT22;10193;48.884;9.182;2023-07-29T03:20:22;20.30;93.20
20066;DHT22;10193;48.884;9.182;2023-07-29T03:22:50;20.20;93.20
20066;DHT22;10193;48.884;9.182;2023-07-29T03:25:17;20.20;93.20
20066;DHT22;10193;48.884;9.182;2023-07-29T03:27:43;20.20;93.30
20066;DHT22;10193;48.884;9.182;2023-07-29T03:30:10;20.20;93.50
20066;DHT22;10193;48.884;9.182;2023-07-29T03:32:42;20.20;93.70
20066;DHT22;10193;48.884;9.182;2023-07-29T03:35:09;20.20;93.90
20066;DHT22;10193;48.884;9.182;2023-07-29T03:37:36;20.20;94.10
20066;DHT22;10193;48.884;9.182;2023-07-29T03:40:05;20.20;94.40
20066;DHT22;10193;48.884;9.182;2023-07-29T03:42:34;20.20;94.40
20066;DHT22;10193;48.884;9.182;2023-07-29T03:45:01;20.20;94.60
20066;DHT22;10193;48.884;9.182;2023-07-29T03:47:28;20.20;94.70
20066;DHT22;10193;48.884;9.182;2023-07-29T03:49:54;20.20;94.70
20066;DHT22;10193;48.884;9.182;2023-07-29T03:52:21;20.30;94.70
20066;DHT22;10193;48.884;9.182;2023-07-29T03:54:47;20.30;94.70
20066;DHT22;10193;48.884;9.182;2023-07-29T03:57:15;20.30;94.60
20066;DHT22;10193;48.884;9.182;2023-07-29T03:59:42;20.30;94.50
20066;DHT22;10193;48.884;9.182;2023-07-29T04:02:09;20.30;94.60
20066;DHT22;10193;48.884;9.182;2023-07-29T04:04:35;20.30;94.60
20066;DHT22;10193;48.884;9.182;2023-07-29T04:07:02;20.40;94.60
20066;DHT22;10193;48.884;9.182;2023-07-29T04:09:29;20.40;94.60
20066;DHT22;10193;48.884;9.182;2023-07-29T04:11:56;20.40;94.60
20066;DHT22;10193;48.884;9.182;2023-07-29T04:14:24;20.40;94.50
20066;DHT22;10193;48.884;9.182;2023-07-29T04:16:51;20.40;94.40
20066;DHT22;10193;48.884;9.182;2023-07-29T04:19:17;20.40;94.40
20066;DHT22;10193;48.884;9.182;2023-07-29T04:21:44;20.40;94.40
20066;DHT22;10193;48.884;9.182;2023-07-29T04:24:11;20.40;94.40
20066;DHT22;10193;48.884;9.182;2023-07-29T04:26:38;20.40;94.50
20066;DHT22;10193;48.884;9.182;2023-07-29T04:29:05;20.40;94.50
20066;DHT22;10193;48.884;9.182;2023-07-29T04:31:33;20.40;94.50
20066;DHT22;10193;48.884;9.182;2023-07-29T04:34:00;20.40;94.50
20066;DHT22;10193;48.884;9.182;2023-07-29T04:36:26;20.40;94.60
20066;DHT22;10193;48.884;9.182;2023-07-29T04:38:53;20.50;94.70
20066;DHT22;10193;48.884;9.182;2023-07-29T04:41:20;20.50;94.60
20066;DHT22;10193;48.884;9.182;2023-07-29T04:43:46;20.50;94.50
20066;DHT22;10193;48.884;9.182;2023-07-29T04:46:15;20.50;94.30
20066;DHT22;10193;48.884;9.182;2023-07-29T04:48:43;20.50;94.30
20066;DHT22;10193;48.884;9.182;2023-07-29T04:51:09;20.50;94.30
20066;DHT22;10193;48.884;9.182;2023-07-29T04:53:36;20.50;94.30
20066;DHT22;10193;48.884;9.182;2023-07-29T04:56:04;20.50;94.40
20066;DHT22;10193;48.884;9.182;2023-07-29T04:58:30;20.50;94.60
20066;DHT22;10193;48.884;9.182;2023-07-29T05:01:00;20.60;94.70
20066;DHT22;10193;48.884;9.182;2023-07-29T05:03:27;20.50;94.60
20066;DHT22;10193;48.884;9.182;2023-07-29T05:05:55;20.50;94.60
20066;DHT22;10193;48.884;9.182;2023-07-29T05:08:22;20.50;94.50
20066;DHT22;10193;48.884;9.182;2023-07-29T05:10:49;20.50;94.70
20066;DHT22;10193;48.884;9.182;2023-07-29T05:13:16;20.50;94.90
20066;DHT22;10193;48.884;9.182;2023-07-29T05:15:43;20.50;95.10
20066;DHT22;10193;48.884;9.182;2023-07-29T05:18:10;20.50;95.40
20066;DHT22;10193;48.884;9.182;2023-07-29T05:20:37;20.60;95.70
20066;DHT22;10193;48.884;9.182;2023-07-29T05:23:05;20.60;96.00
20066;DHT22;10193;48.884;9.182;2023-07-29T05:25:32;20.60;96.00
20066;DHT22;10193;48.884;9.182;2023-07-29T05:28:00;20.60;96.10
20066;DHT22;10193;48.884;9.182;2023-07-29T05:30:26;20.70;96.30
20066;DHT22;10193;48.884;9.182;2023-07-29T05:32:56;20.70;96.50
20066;DHT22;10193;48.884;9.182;2023-07-29T05:35:23;20.80;96.50
20066;DHT22;10193;48.884;9.182;2023-07-29T05:37:50;20.80;96.70
20066;DHT22;10193;48.884;9.182;2023-07-29T05:40:18;20.80;96.60
20066;DHT22;10193;48.884;9.182;2023-07-29T05:42:45;20.90;96.50
20066;DHT22;10193;48.884;9.182;2023-07-29T05:45:11;20.90;96.50
20066;DHT22;10193;48.884;9.182;2023-07-29T05:47:38;21.00;96.80
20066;DHT22;10193;48.884;9.182;2023-07-29T05:50:05;21.10;97.10
20066;DHT22;10193;48.884;9.182;2023-07-29T05:52:32;21.10;97.00
20066;DHT22;10193;48.884;9.182;2023-07-29T05:54:59;21.10;96.60
20066;DHT22;10193;48.884;9.182;2023-07-29T05:57:27;21.20;96.90
20066;DHT22;10193;48.884;9.182;2023-07-29T05:59:54;21.20;96.70
20066;DHT22;10193;48.884;9.182;2023-07-29T06:02:21;21.30;97.30
20066;DHT22;10193;48.884;9.182;2023-07-29T06:04:48;21.30;97.90
20066;DHT22;10193;48.884;9.182;2023-07-29T06:07:15;21.40;98.40
20066;DHT22;10193;48.884;9.182;2023-07-29T06:09:41;21.50;98.80
20066;DHT22;10193;48.884;9.182;2023-07-29T06:12:08;21.60;99.00
20066;DHT22;10193;48.884;9.182;2023-07-29T06:14:36;21.70;99.10
20066;DHT22;10193;48.884;9.182;2023-07-29T06:17:03;21.80;99.20
20066;DHT22;10193;48.884;9.182;2023-07-29T06:19:32;21.90;99.90
20066;DHT22;10193;48.884;9.182;2023-07-29T06:21:58;22.00;99.90
20066;DHT22;10193;48.884;9.182;2023-07-29T06:24:26;22.20;99.90
20066;DHT22;10193;48.884;9.182;2023-07-29T06:26:53;22.30;99.80
20066;DHT22;10193;48.884;9.182;2023-07-29T06:29:20;22.50;99.20
20066;DHT22;10193;48.884;9.182;2023-07-29T06:31:48;22.60;98.40
20066;DHT22;10193;48.884;9.182;2023-07-29T06:34:16;22.70;97.60
20066;DHT22;10193;48.884;9.182;2023-07-29T06:36:44;22.80;97.00
20066;DHT22;10193;48.884;9.182;2023-07-29T06:39:10;22.80;96.20
20066;DHT22;10193;48.884;9.182;2023-07-29T06:41:37;22.80;95.50
20066;DHT22;10193;48.884;9.182;2023-07-29T06:44:04;22.80;95.10
20066;DHT22;10193;48.884;9.182;2023-07-29T06:46:30;22.80;94.90
20066;DHT22;10193;48.884;9.182;2023-07-29T06:48:58;22.80;94.90
20066;DHT22;10193;48.884;9.182;2023-07-29T06:51:25;22.80;95.10
20066;DHT22;10193;48.884;9.182;2023-07-29T06:53:52;22.80;94.70
20066;DHT22;10193;48.884;9.182;2023-07-29T06:56:18;22.80;94.50
20066;DHT22;10193;48.884;9.182;2023-07-29T06:58:45;22.80;94.60
20066;DHT22;10193;48.884;9.182;2023-07-29T07:01:12;22.70;94.60
20066;DHT22;10193;48.884;9.182;2023-07-29T07:03:38;22.70;94.80
20066;DHT22;10193;48.884;9.182;2023-07-29T07:06:08;22.70;95.40
20066;DHT22;10193;48.884;9.182;2023-07-29T07:08:35;22.70;95.20
20066;DHT22;10193;48.884;9.182;2023-07-29T07:11:01;22.70;95.60
20066;DHT22;10193;48.884;9.182;2023-07-29T07:13:28;22.70;95.50
20066;DHT22;10193;48.884;9.182;2023-07-29T07:15:55;22.70;95.40
20066;DHT22;10193;48.884;9.182;2023-07-29T07:18:22;22.70;95.40
20066;DHT22;10193;48.884;9.182;2023-07-29T07:20:49;22.80;95.50
20066;DHT22;10193;48.884;9.182;2023-07-29T07:23:18;22.80;95.30
20066;DHT22;10193;48.884;9.182;2023-07-29T07:25:44;22.80;95.10
20066;DHT22;10193;48.884;9.182;2023-07-29T07:28:11;22.80;95.00
20066;DHT22;10193;48.884;9.182;2023-07-29T07:30:39;22.80;94.90
20066;DHT22;10193;48.884;9.182;2023-07-29T07:33:06;22.80;94.80
20066;DHT22;10193;48.884;9.182;2023-07-29T07:35:33;22.80;95.00
20066;DHT22;10193;48.884;9.182;2023-07-29T07:38:00;22.80;95.40
20066;DHT22;10193;48.884;9.182;2023-07-29T07:40:30;22.80;95.70
20066;DHT22;10193;48.884;9.182;2023-07-29T07:42:57;22.80;95.80
20066;DHT22;10193;48.884;9.182;2023-07-29T07:45:24;22.80;95.80
20066;DHT22;10193;48.884;9.182;2023-07-29T07:47:51;22.80;95.70
20066;DHT22;10193;48.884;9.182;2023-07-29T07:50:18;22.90;95.70
20066;DHT22;10193;48.884;9.182;2023-07-29T07:52:45;22.90;95.70
20066;DHT22;10193;48.884;9.182;2023-07-29T07:55:12;22.90;95.80
20066;DHT22;10193;48.884;9.182;2023-07-29T07:57:40;23.00;95.80
20066;DHT22;10193;48.884;9.182;2023-07-29T08:00:07;23.00;95.90
20066;DHT22;10193;48.884;9.182;2023-07-29T08:02:35;23.10;96.30
20066;DHT22;10193;48.884;9.182;2023-07-29T08:05:01;23.10;96.40
20066;DHT22;10193;48.884;9.182;2023-07-29T08:07:28;23.10;96.80
20066;DHT22;10193;48.884;9.182;2023-07-29T08:09:55;23.20;97.30
20066;DHT22;10193;48.884;9.182;2023-07-29T08:12:21;23.30;98.20
20066;DHT22;10193;48.884;9.182;2023-07-29T08:14:49;23.40;99.00
20066;DHT22;10193;48.884;9.182;2023-07-29T08:17:16;23.50;99.30
20066;DHT22;10193;48.884;9.182;2023-07-29T08:19:43;23.70;99.90
20066;DHT22;10193;48.884;9.182;2023-07-29T08:22:10;23.80;99.90
20066;DHT22;10193;48.884;9.182;2023-07-29T08:24:36;24.00;99.90
20066;DHT22;10193;48.884;9.182;2023-07-29T08:27:04;24.20;99.90
20066;DHT22;10193;48.884;9.182;2023-07-29T08:29:30;24.40;99.90
20066;DHT22;10193;48.884;9.182;2023-07-29T08:31:58;24.60;98.60
20066;DHT22;10193;48.884;9.182;2023-07-29T08:34:25;24.70;96.80
20066;DHT22;10193;48.884;9.182;2023-07-29T08:36:52;24.80;96.00
20066;DHT22;10193;48.884;9.182;2023-07-29T08:39:18;24.90;95.60
20066;DHT22;10193;48.884;9.182;2023-07-29T08:41:49;24.90;95.30
20066;DHT22;10193;48.884;9.182;2023-07-29T08:44:21;25.00;95.10
20066;DHT22;10193;48.884;9.182;2023-07-29T08:46:48;25.00;95.10
20066;DHT22;10193;48.884;9.182;2023-07-29T08:49:18;25.00;95.50
20066;DHT22;10193;48.884;9.182;2023-07-29T08:51:46;25.10;95.50
20066;DHT22;10193;48.884;9.182;2023-07-29T08:54:13;25.20;96.20
20066;DHT22;10193;48.884;9.182;2023-07-29T08:56:40;25.30;96.30
20066;DHT22;10193;48.884;9.182;2023-07-29T08:59:07;25.40;96.60
20066;DHT22;10193;48.884;9.182;2023-07-29T09:01:34;25.50;96.60
20066;DHT22;10193;48.884;9.182;2023-07-29T09:04:01;25.70;96.40
20066;DHT22;10193;48.884;9.182;2023-07-29T09:06:29;25.80;96.20
20066;DHT22;10193;48.884;9.182;2023-07-29T09:08:55;25.90;96.20
20066;DHT22;10193;48.884;9.182;2023-07-29T09:11:23;26.00;96.50
20066;DHT22;10193;48.884;9.182;2023-07-29T09:13:50;26.20;96.20
20066;DHT22;10193;48.884;9.182;2023-07-29T09:16:18;26.30;95.50
20066;DHT22;10193;48.884;9.182;2023-07-29T09:18:48;26.50;94.90
20066;DHT22;10193;48.884;9.182;2023-07-29T09:21:16;26.60;94.40
20066;DHT22;10193;48.884;9.182;2023-07-29T09:23:44;26.70;94.30
20066;DHT22;10193;48.884;9.182;2023-07-29T09:26:11;26.80;93.80
20066;DHT22;10193;48.884;9.182;2023-07-29T09:28:39;26.90;94.00
20066;DHT22;10193;48.884;9.182;2023-07-29T09:31:06;27.00;94.00
20066;DHT22;10193;48.884;9.182;2023-07-29T09:33:36;27.20;94.10
20066;DHT22;10193;48.884;9.182;2023-07-29T09:36:07;27.40;94.00
20066;DHT22;10193;48.884;9.182;2023-07-29T09:38:34;27.40;94.20
20066;DHT22;10193;48.884;9.182;2023-07-29T09:41:03;27.50;93.80
20066;DHT22;10193;48.884;9.182;2023-07-29T09:43:31;27.70;93.00
20066;DHT22;10193;48.884;9.182;2023-07-29T09:46:00;27.80;91.90
20066;DHT22;10193;48.884;9.182;2023-07-29T09:48:27;27.80;90.80
20066;DHT22;10193;48.884;9.182;2023-07-29T09:50:54;27.90;89.80
20066;DHT22;10193;48.884;9.182;2023-07-29T09:53:21;27.80;87.60
20066;DHT22;10193;48.884;9.182;2023-07-29T09:55:48;27.80;86.70
20066;DHT22;10193;48.884;9.182;2023-07-29T09:58:22;27.70;85.80
20066;DHT22;10193;48.884;9.182;2023-07-29T10:00:52;27.60;84.40
20066;DHT22;10193;48.884;9.182;2023-07-29T10:03:19;27.40;84.10
20066;DHT22;10193;48.884;9.182;2023-07-29T10:05:47;27.30;83.50
20066;DHT22;10193;48.884;9.182;2023-07-29T10:08:14;27.10;82.10
20066;DHT22;10193;48.884;9.182;2023-07-29T10:10:41;26.80;76.60
20066;DHT22;10193;48.884;9.182;2023-07-29T10:13:09;26.40;72.60
20066;DHT22;10193;48.884;9.182;2023-07-29T10:15:37;25.70;73.40
20066;DHT22;10193;48.884;9.182;2023-07-29T10:18:04;25.10;75.80
20066;DHT22;10193;48.884;9.182;2023-07-29T10:20:32;24.60;79.30
20066;DHT22;10193;48.884;9.182;2023-07-29T10:23:01;24.20;82.10
20066;DHT22;10193;48.884;9.182;2023-07-29T10:25:37;23.90;84.30
20066;DHT22;10193;48.884;9.182;2023-07-29T10:28:05;23.60;86.00
20066;DHT22;10193;48.884;9.182;2023-07-29T10:30:32;23.30;86.00
20066;DHT22;10193;48.884;9.182;2023-07-29T10:33:02;23.10;87.00
20066;DHT22;10193;48.884;9.182;2023-07-29T10:35:32;22.90;88.00
20066;DHT22;10193;48.884;9.182;2023-07-29T10:38:00;22.70;89.90
20066;DHT22;10193;48.884;9.182;2023-07-29T10:40:43;22.60;91.40
20066;DHT22;10193;48.884;9.182;2023-07-29T10:43:11;22.50;92.30
20066;DHT22;10193;48.884;9.182;2023-07-29T10:45:40;22.50;93.50
20066;DHT22;10193;48.884;9.182;2023-07-29T10:48:10;22.50;94.30
20066;DHT22;10193;48.884;9.182;2023-07-29T10:50:37;22.60;94.00
20066;DHT22;10193;48.884;9.182;2023-07-29T10:53:04;22.60;94.30
20066;DHT22;10193;48.884;9.182;2023-07-29T10:55:33;22.70;94.30
20066;DHT22;10193;48.884;9.182;2023-07-29T10:58:16;22.80;94.20
20066;DHT22;10193;48.884;9.182;2023-07-29T11:00:43;22.80;94.30
20066;DHT22;10193;48.884;9.182;2023-07-29T11:03:13;22.90;96.00
20066;DHT22;10193;48.884;9.182;2023-07-29T11:05:49;23.00;96.20
20066;DHT22;10193;48.884;9.182;2023-07-29T11:08:17;23.10;95.10
20066;DHT22;10193;48.884;9.182;2023-07-29T11:10:43;23.20;94.80
20066;DHT22;10193;48.884;9.182;2023-07-29T11:13:10;23.30;95.30
20066;DHT22;10193;48.884;9.182;2023-07-29T11:16:03;23.50;94.90
20066;DHT22;10193;48.884;9.182;2023-07-29T11:18:47;23.50;94.80
20066;DHT22;10193;48.884;9.182;2023-07-29T11:21:32;23.70;95.60
20066;DHT22;10193;48.884;9.182;2023-07-29T11:24:02;23.90;95.00
20066;DHT22;10193;48.884;9.182;2023-07-29T11:26:29;24.00;94.60
20066;DHT22;10193;48.884;9.182;2023-07-29T11:28:56;24.10;94.30
20066;DHT22;10193;48.884;9.182;2023-07-29T11:31:38;24.30;93.90
20066;DHT22;10193;48.884;9.182;2023-07-29T11:34:08;24.30;93.30
20066;DHT22;10193;48.884;9.182;2023-07-29T11:36:34;24.40;93.10
20066;DHT22;10193;48.884;9.182;2023-07-29T11:39:09;24.60;94.10
20066;DHT22;10193;48.884;9.182;2023-07-29T11:41:37;24.70;94.30
20066;DHT22;10193;48.884;9.182;2023-07-29T11:44:03;24.70;94.50
20066;DHT22;10193;48.884;9.182;2023-07-29T11:46:30;24.80;95.20
20066;DHT22;10193;48.884;9.182;2023-07-29T11:48:57;25.00;95.80
20066;DHT22;10193;48.884;9.182;2023-07-29T11:51:25;25.10;95.50
20066;DHT22;10193;48.884;9.182;2023-07-29T11:53:52;25.20;95.20
20066;DHT22;10193;48.884;9.182;2023-07-29T11:56:19;25.30;95.10
20066;DHT22;10193;48.884;9.182;2023-07-29T11:58:46;25.40;94.90
20066;DHT22;10193;48.884;9.182;2023-07-29T12:01:14;25.50;94.70
20066;DHT22;10193;48.884;9.182;2023-07-29T12:03:41;25.60;94.30
20066;DHT22;10193;48.884;9.182;2023-07-29T12:06:08;25.70;94.20
20066;DHT22;10193;48.884;9.182;2023-07-29T12:08:37;25.70;94.20
20066;DHT22;10193;48.884;9.182;2023-07-29T12:11:04;25.80;93.70
20066;DHT22;10193;48.884;9.182;2023-07-29T12:13:31;25.90;93.20
20066;DHT22;10193;48.884;9.182;2023-07-29T12:16:01;26.00;93.10
20066;DHT22;10193;48.884;9.182;2023-07-29T12:18:30;26.10;92.30
20066;DHT22;10193;48.884;9.182;2023-07-29T12:20:57;26.10;92.50
20066;DHT22;10193;48.884;9.182;2023-07-29T12:23:24;26.20;92.40
20066;DHT22;10193;48.884;9.182;2023-07-29T12:25:57;26.30;92.00
20066;DHT22;10193;48.884;9.182;2023-07-29T12:28:24;26.40;91.10
20066;DHT22;10193;48.884;9.182;2023-07-29T12:30:53;26.50;91.90
20066;DHT22;10193;48.884;9.182;2023-07-29T12:33:33;26.60;91.70
20066;DHT22;10193;48.884;9.182;2023-07-29T12:36:01;26.70;90.20
20066;DHT22;10193;48.884;9.182;2023-07-29T12:38:28;26.80;91.30
20066;DHT22;10193;48.884;9.182;2023-07-29T12:40:56;26.90;90.80
20066;DHT22;10193;48.884;9.182;2023-07-29T12:43:23;27.00;90.80
20066;DHT22;10193;48.884;9.182;2023-07-29T12:45:51;27.00;90.10
20066;DHT22;10193;48.884;9.182;2023-07-29T12:48:17;27.10;89.70
20066;DHT22;10193;48.884;9.182;2023-07-29T12:50:44;27.10;88.90
20066;DHT22;10193;48.884;9.182;2023-07-29T12:53:11;27.20;88.70
20066;DHT22;10193;48.884;9.182;2023-07-29T12:55:38;27.30;88.20
20066;DHT22;10193;48.884;9.182;2023-07-29T12:58:06;27.40;87.30
20066;DHT22;10193;48.884;9.182;2023-07-29T13:00:32;27.40;87.10
20066;DHT22;10193;48.884;9.182;2023-07-29T13:02:59;27.50;87.00
20066;DHT22;10193;48.884;9.182;2023-07-29T13:05:26;27.60;87.00
20066;DHT22;10193;48.884;9.182;2023-07-29T13:07:52;27.70;86.90
20066;DHT22;10193;48.884;9.182;2023-07-29T13:10:19;27.80;86.10
20066;DHT22;10193;48.884;9.182;2023-07-29T13:12:46;27.90;85.80
20066;DHT22;10193;48.884;9.182;2023-07-29T13:15:14;28.10;84.70
20066;DHT22;10193;48.884;9.182;2023-07-29T13:17:40;28.20;82.50
20066;DHT22;10193;48.884;9.182;2023-07-29T13:20:08;28.20;82.60
20066;DHT22;10193;48.884;9.182;2023-07-29T13:22:35;28.30;83.10
20066;DHT22;10193;48.884;9.182;2023-07-29T13:25:02;28.40;82.70
20066;DHT22;10193;48.884;9.182;2023-07-29T13:27:28;28.50;82.70
20066;DHT22;10193;48.884;9.182;2023-07-29T13:29:55;28.50;81.40
20066;DHT22;10193;48.884;9.182;2023-07-29T13:32:23;28.60;80.20
20066;DHT22;10193;48.884;9.182;2023-07-29T13:34:50;28.60;80.40
20066;DHT22;10193;48.884;9.182;2023-07-29T13:37:16;28.60;80.50
20066;DHT22;10193;48.884;9.182;2023-07-29T13:39:43;28.70;79.70
20066;DHT22;10193;48.884;9.182;2023-07-29T13:42:10;28.70;79.50
20066;DHT22;10193;48.884;9.182;2023-07-29T13:44:36;28.70;79.00
20066;DHT22;10193;48.884;9.182;2023-07-29T13:47:03;28.70;79.10
20066;DHT22;10193;48.884;9.182;2023-07-29T13:49:32;28.70;79.30
20066;DHT22;10193;48.884;9.182;2023-07-29T13:51:59;28.80;79.60
20066;DHT22;10193;48.884;9.182;2023-07-29T13:54:26;28.80;79.00
20066;DHT22;10193;48.884;9.182;2023-07-29T13:56:54;28.80;79.10
20066;DHT22;10193;48.884;9.182;2023-07-29T13:59:20;28.90;79.50
20066;DHT22;10193;48.884;9.182;2023-07-29T14:01:47;28.90;79.00
20066;DHT22;10193;48.884;9.182;2023-07-29T14:04:14;29.00;78.90
20066;DHT22;10193;48.884;9.182;2023-07-29T14:06:42;29.10;79.00
20066;DHT22;10193;48.884;9.182;2023-07-29T14:09:08;29.10;78.60
20066;DHT22;10193;48.884;9.182;2023-07-29T14:11:35;29.10;78.00
20066;DHT22;10193;48.884;9.182;2023-07-29T14:14:02;29.20;77.40
20066;DHT22;10193;48.884;9.182;2023-07-29T14:16:28;29.20;74.50
20066;DHT22;10193;48.884;9.182;2023-07-29T14:18:55;29.10;73.40
20066;DHT22;10193;48.884;9.182;2023-07-29T14:21:22;29.10;73.40
20066;DHT22;10193;48.884;9.182;2023-07-29T14:23:50;29.00;73.00
20066;DHT22;10193;48.884;9.182;2023-07-29T14:26:16;29.00;74.10
20066;DHT22;10193;48.884;9.182;2023-07-29T14:28:43;29.00;75.20
20066;DHT22;10193;48.884;9.182;2023-07-29T14:31:10;28.90;75.30
20066;DHT22;10193;48.884;9.182;2023-07-29T14:33:36;28.90;75.30
20066;DHT22;10193;48.884;9.182;2023-07-29T14:36:03;29.00;74.70
20066;DHT22;10193;48.884;9.182;2023-07-29T14:38:32;29.00;74.20
20066;DHT22;10193;48.884;9.182;2023-07-29T14:41:00;29.00;74.20
20066;DHT22;10193;48.884;9.182;2023-07-29T14:43:27;29.00;74.30
20066;DHT22;10193;48.884;9.182;2023-07-29T14:45:53;29.00;73.40
20066;DHT22;10193;48.884;9.182;2023-07-29T14:48:20;29.00;73.10
20066;DHT22;10193;48.884;9.182;2023-07-29T14:50:47;28.90;72.20
20066;DHT22;10193;48.884;9.182;2023-07-29T14:53:13;28.90;71.30
20066;DHT22;10193;48.884;9.182;2023-07-29T14:55:40;28.80;69.80
20066;DHT22;10193;48.884;9.182;2023-07-29T14:58:08;28.70;70.70
20066;DHT22;10193;48.884;9.182;2023-07-29T15:00:35;28.70;71.40
20066;DHT22;10193;48.884;9.182;2023-07-29T15:03:01;28.70;70.80
20066;DHT22;10193;48.884;9.182;2023-07-29T15:05:28;28.60;70.10
20066;DHT22;10193;48.884;9.182;2023-07-29T15:07:55;28.50;69.70
20066;DHT22;10193;48.884;9.182;2023-07-29T15:10:22;28.40;69.40
20066;DHT22;10193;48.884;9.182;2023-07-29T15:12:49;28.30;69.40
20066;DHT22;10193;48.884;9.182;2023-07-29T15:15:17;28.30;70.60
20066;DHT22;10193;48.884;9.182;2023-07-29T15:17:44;28.20;71.10
20066;DHT22;10193;48.884;9.182;2023-07-29T15:20:11;28.20;71.60
20066;DHT22;10193;48.884;9.182;2023-07-29T15:22:38;28.20;72.10
20066;DHT22;10193;48.884;9.182;2023-07-29T15:25:05;28.20;72.10
20066;DHT22;10193;48.884;9.182;2023-07-29T15:27:32;28.20;72.00
20066;DHT22;10193;48.884;9.182;2023-07-29T15:29:58;28.30;72.40
20066;DHT22;10193;48.884;9.182;2023-07-29T15:32:26;28.30;72.90
20066;DHT22;10193;48.884;9.182;2023-07-29T15:34:54;28.40;73.40